KOLV/OLV METAR and TAF weather

Enter ICAO airport designator
Station Type Date Time Source
KOLV METAR 2021/03/01 20:50 UTC NOAA

KOLV 012050Z 04008KT 10SM BKN120 OVC200 08/03 A3024


Station Type Date Time Source
KOLV Decoded METAR 2021/03/01 20:50 UTC NOAA

Olive Branch, Olive Branch Airport, MS, United States (KOLV) 34-58-44N 089-47-13W
Mar 01, 2021 - 03:50 PM EST / 2021.03.01 2050 UTC
Wind: from the NE (040 degrees) at 9 MPH (8 KT):0
Visibility: 10 mile(s):0
Sky conditions: overcast
Temperature: 46 F (8 C)
Dew Point: 37 F (3 C)
Relative Humidity: 70%
Pressure (altimeter): 30.24 in. Hg (1024 hPa)
ob: KOLV 012050Z 04008KT 10SM BKN120 OVC200 08/03 A3024
cycle: 21

Station Type Date Time Source
KOLV TAF UTC NOAA

Error!

Example: see airport list